sensor_id;sensor_type;location;lat;lon;timestamp;P1;durP1;ratioP1;P2;durP2;ratioP2
30519;SDS011;17300;50.374;8.006;2023-04-19T00:00:19;3.63;;;2.43;;
30519;SDS011;17300;50.374;8.006;2023-04-19T00:02:45;2.67;;;2.47;;
30519;SDS011;17300;50.374;8.006;2023-04-19T00:05:14;2.37;;;2.17;;
30519;SDS011;17300;50.374;8.006;2023-04-19T00:07:42;2.70;;;2.50;;
30519;SDS011;17300;50.374;8.006;2023-04-19T00:10:09;2.77;;;2.57;;
30519;SDS011;17300;50.374;8.006;2023-04-19T00:12:36;2.73;;;2.53;;
30519;SDS011;17300;50.374;8.006;2023-04-19T00:15:02;2.87;;;2.67;;
30519;SDS011;17300;50.374;8.006;2023-04-19T00:17:30;2.70;;;2.50;;
30519;SDS011;17300;50.374;8.006;2023-04-19T00:19:56;2.50;;;2.30;;
30519;SDS011;17300;50.374;8.006;2023-04-19T00:22:24;2.47;;;2.30;;
30519;SDS011;17300;50.374;8.006;2023-04-19T00:24:51;2.63;;;2.43;;
30519;SDS011;17300;50.374;8.006;2023-04-19T00:27:18;2.83;;;2.63;;
30519;SDS011;17300;50.374;8.006;2023-04-19T00:29:45;2.70;;;2.50;;
30519;SDS011;17300;50.374;8.006;2023-04-19T00:32:12;2.73;;;2.53;;
30519;SDS011;17300;50.374;8.006;2023-04-19T00:34:38;2.83;;;2.63;;
30519;SDS011;17300;50.374;8.006;2023-04-19T00:37:06;2.90;;;2.70;;
30519;SDS011;17300;50.374;8.006;2023-04-19T00:39:35;2.90;;;2.70;;
30519;SDS011;17300;50.374;8.006;2023-04-19T00:42:02;3.40;;;3.10;;
30519;SDS011;17300;50.374;8.006;2023-04-19T00:44:28;3.07;;;2.80;;
30519;SDS011;17300;50.374;8.006;2023-04-19T00:46:55;3.60;;;3.30;;
30519;SDS011;17300;50.374;8.006;2023-04-19T00:49:22;3.20;;;2.90;;
30519;SDS011;17300;50.374;8.006;2023-04-19T00:51:50;3.73;;;3.43;;
30519;SDS011;17300;50.374;8.006;2023-04-19T00:54:17;3.50;;;3.23;;
30519;SDS011;17300;50.374;8.006;2023-04-19T00:56:45;3.63;;;3.33;;
30519;SDS011;17300;50.374;8.006;2023-04-19T00:59:13;3.80;;;3.50;;
30519;SDS011;17300;50.374;8.006;2023-04-19T01:01:40;3.93;;;3.63;;
30519;SDS011;17300;50.374;8.006;2023-04-19T01:04:07;3.53;;;3.10;;
30519;SDS011;17300;50.374;8.006;2023-04-19T01:06:34;3.73;;;3.43;;
30519;SDS011;17300;50.374;8.006;2023-04-19T01:09:01;3.87;;;3.57;;
30519;SDS011;17300;50.374;8.006;2023-04-19T01:11:28;3.97;;;3.67;;
30519;SDS011;17300;50.374;8.006;2023-04-19T01:13:58;4.27;;;3.87;;
30519;SDS011;17300;50.374;8.006;2023-04-19T01:16:25;4.60;;;4.20;;
30519;SDS011;17300;50.374;8.006;2023-04-19T01:18:52;4.17;;;3.77;;
30519;SDS011;17300;50.374;8.006;2023-04-19T01:21:19;4.73;;;4.23;;
30519;SDS011;17300;50.374;8.006;2023-04-19T01:23:48;4.90;;;4.50;;
30519;SDS011;17300;50.374;8.006;2023-04-19T01:26:15;4.70;;;4.30;;
30519;SDS011;17300;50.374;8.006;2023-04-19T01:28:42;4.53;;;4.13;;
30519;SDS011;17300;50.374;8.006;2023-04-19T01:31:09;4.73;;;4.33;;
30519;SDS011;17300;50.374;8.006;2023-04-19T01:33:35;4.63;;;4.23;;
30519;SDS011;17300;50.374;8.006;2023-04-19T01:36:02;4.70;;;4.30;;
30519;SDS011;17300;50.374;8.006;2023-04-19T01:38:29;4.67;;;4.27;;
30519;SDS011;17300;50.374;8.006;2023-04-19T01:40:57;4.80;;;4.40;;
30519;SDS011;17300;50.374;8.006;2023-04-19T01:43:23;4.70;;;4.30;;
30519;SDS011;17300;50.374;8.006;2023-04-19T01:45:50;4.47;;;4.07;;
30519;SDS011;17300;50.374;8.006;2023-04-19T01:48:17;5.00;;;4.50;;
30519;SDS011;17300;50.374;8.006;2023-04-19T01:50:43;5.20;;;4.70;;
30519;SDS011;17300;50.374;8.006;2023-04-19T01:53:10;5.00;;;4.60;;
30519;SDS011;17300;50.374;8.006;2023-04-19T01:55:37;5.13;;;4.63;;
30519;SDS011;17300;50.374;8.006;2023-04-19T01:58:05;4.83;;;4.43;;
30519;SDS011;17300;50.374;8.006;2023-04-19T02:00:32;5.50;;;4.93;;
30519;SDS011;17300;50.374;8.006;2023-04-19T02:02:58;5.13;;;4.63;;
30519;SDS011;17300;50.374;8.006;2023-04-19T02:05:25;5.30;;;4.80;;
30519;SDS011;17300;50.374;8.006;2023-04-19T02:07:52;4.93;;;4.53;;
30519;SDS011;17300;50.374;8.006;2023-04-19T02:10:18;4.57;;;4.17;;
30519;SDS011;17300;50.374;8.006;2023-04-19T02:12:45;4.80;;;4.40;;
30519;SDS011;17300;50.374;8.006;2023-04-19T02:15:13;4.73;;;4.20;;
30519;SDS011;17300;50.374;8.006;2023-04-19T02:17:40;4.67;;;4.27;;
30519;SDS011;17300;50.374;8.006;2023-04-19T02:20:07;4.80;;;4.40;;
30519;SDS011;17300;50.374;8.006;2023-04-19T02:22:34;4.90;;;4.50;;
30519;SDS011;17300;50.374;8.006;2023-04-19T02:25:01;5.00;;;4.53;;
30519;SDS011;17300;50.374;8.006;2023-04-19T02:27:28;5.70;;;5.10;;
30519;SDS011;17300;50.374;8.006;2023-04-19T02:29:55;5.07;;;4.67;;
30519;SDS011;17300;50.374;8.006;2023-04-19T02:32:23;5.20;;;4.70;;
30519;SDS011;17300;50.374;8.006;2023-04-19T02:34:49;5.57;;;4.73;;
30519;SDS011;17300;50.374;8.006;2023-04-19T02:37:16;5.37;;;4.87;;
30519;SDS011;17300;50.374;8.006;2023-04-19T02:39:43;5.20;;;4.70;;
30519;SDS011;17300;50.374;8.006;2023-04-19T02:42:10;5.50;;;4.97;;
30519;SDS011;17300;50.374;8.006;2023-04-19T02:44:36;5.67;;;5.17;;
30519;SDS011;17300;50.374;8.006;2023-04-19T02:47:03;5.17;;;4.67;;
30519;SDS011;17300;50.374;8.006;2023-04-19T02:49:31;5.17;;;4.67;;
30519;SDS011;17300;50.374;8.006;2023-04-19T02:52:00;5.37;;;4.87;;
30519;SDS011;17300;50.374;8.006;2023-04-19T02:54:27;6.40;;;5.07;;
30519;SDS011;17300;50.374;8.006;2023-04-19T02:56:54;5.20;;;4.60;;
30519;SDS011;17300;50.374;8.006;2023-04-19T02:59:21;5.20;;;4.70;;
30519;SDS011;17300;50.374;8.006;2023-04-19T03:01:48;5.30;;;4.80;;
30519;SDS011;17300;50.374;8.006;2023-04-19T03:04:15;5.63;;;5.13;;
30519;SDS011;17300;50.374;8.006;2023-04-19T03:06:43;5.57;;;5.07;;
30519;SDS011;17300;50.374;8.006;2023-04-19T03:09:10;5.77;;;5.27;;
30519;SDS011;17300;50.374;8.006;2023-04-19T03:11:36;5.53;;;5.03;;
30519;SDS011;17300;50.374;8.006;2023-04-19T03:14:03;5.67;;;5.17;;
30519;SDS011;17300;50.374;8.006;2023-04-19T03:16:30;5.27;;;4.67;;
30519;SDS011;17300;50.374;8.006;2023-04-19T03:18:57;5.43;;;4.93;;
30519;SDS011;17300;50.374;8.006;2023-04-19T03:21:24;6.17;;;5.57;;
30519;SDS011;17300;50.374;8.006;2023-04-19T03:23:54;5.73;;;5.23;;
30519;SDS011;17300;50.374;8.006;2023-04-19T03:26:21;5.67;;;5.17;;
30519;SDS011;17300;50.374;8.006;2023-04-19T03:28:47;6.00;;;5.50;;
30519;SDS011;17300;50.374;8.006;2023-04-19T03:31:14;6.00;;;5.40;;
30519;SDS011;17300;50.374;8.006;2023-04-19T03:33:41;5.93;;;5.40;;
30519;SDS011;17300;50.374;8.006;2023-04-19T03:36:08;6.13;;;5.53;;
30519;SDS011;17300;50.374;8.006;2023-04-19T03:38:35;5.80;;;5.30;;
30519;SDS011;17300;50.374;8.006;2023-04-19T03:41:03;6.10;;;5.57;;
30519;SDS011;17300;50.374;8.006;2023-04-19T03:43:30;6.63;;;6.03;;
30519;SDS011;17300;50.374;8.006;2023-04-19T03:45:56;6.60;;;6.00;;
30519;SDS011;17300;50.374;8.006;2023-04-19T03:48:23;6.73;;;6.13;;
30519;SDS011;17300;50.374;8.006;2023-04-19T03:50:50;6.27;;;5.67;;
30519;SDS011;17300;50.374;8.006;2023-04-19T03:53:16;6.23;;;5.67;;
30519;SDS011;17300;50.374;8.006;2023-04-19T03:55:43;5.77;;;5.27;;
30519;SDS011;17300;50.374;8.006;2023-04-19T03:58:12;6.50;;;5.90;;
30519;SDS011;17300;50.374;8.006;2023-04-19T04:00:39;5.73;;;5.23;;
30519;SDS011;17300;50.374;8.006;2023-04-19T04:03:06;5.80;;;5.30;;
30519;SDS011;17300;50.374;8.006;2023-04-19T04:05:33;5.80;;;5.30;;
30519;SDS011;17300;50.374;8.006;2023-04-19T04:08:00;6.00;;;5.40;;
30519;SDS011;17300;50.374;8.006;2023-04-19T04:10:26;5.80;;;5.30;;
30519;SDS011;17300;50.374;8.006;2023-04-19T04:12:53;6.27;;;5.67;;
30519;SDS011;17300;50.374;8.006;2023-04-19T04:15:21;5.23;;;4.73;;
30519;SDS011;17300;50.374;8.006;2023-04-19T04:17:48;5.73;;;5.23;;
30519;SDS011;17300;50.374;8.006;2023-04-19T04:20:15;5.87;;;5.37;;
30519;SDS011;17300;50.374;8.006;2023-04-19T04:22:42;6.23;;;5.63;;
30519;SDS011;17300;50.374;8.006;2023-04-19T04:25:10;5.67;;;5.17;;
30519;SDS011;17300;50.374;8.006;2023-04-19T04:27:37;6.77;;;6.03;;
30519;SDS011;17300;50.374;8.006;2023-04-19T04:30:04;6.60;;;5.87;;
30519;SDS011;17300;50.374;8.006;2023-04-19T04:32:33;6.23;;;5.63;;
30519;SDS011;17300;50.374;8.006;2023-04-19T04:35:00;5.93;;;5.33;;
30519;SDS011;17300;50.374;8.006;2023-04-19T04:37:27;5.67;;;5.20;;
30519;SDS011;17300;50.374;8.006;2023-04-19T04:39:55;6.13;;;5.53;;
30519;SDS011;17300;50.374;8.006;2023-04-19T04:42:21;5.73;;;5.23;;
30519;SDS011;17300;50.374;8.006;2023-04-19T04:44:48;5.90;;;5.40;;
30519;SDS011;17300;50.374;8.006;2023-04-19T04:47:16;5.77;;;5.17;;
30519;SDS011;17300;50.374;8.006;2023-04-19T04:49:44;5.50;;;5.10;;
30519;SDS011;17300;50.374;8.006;2023-04-19T04:52:10;5.70;;;5.20;;
30519;SDS011;17300;50.374;8.006;2023-04-19T04:54:37;5.67;;;5.17;;
30519;SDS011;17300;50.374;8.006;2023-04-19T04:57:04;5.23;;;4.73;;
30519;SDS011;17300;50.374;8.006;2023-04-19T04:59:31;5.43;;;4.93;;
30519;SDS011;17300;50.374;8.006;2023-04-19T05:01:57;5.27;;;4.77;;
30519;SDS011;17300;50.374;8.006;2023-04-19T05:04:24;6.03;;;5.43;;
30519;SDS011;17300;50.374;8.006;2023-04-19T05:06:52;6.40;;;5.47;;
30519;SDS011;17300;50.374;8.006;2023-04-19T05:09:19;5.73;;;5.23;;
30519;SDS011;17300;50.374;8.006;2023-04-19T05:11:45;5.87;;;5.27;;
30519;SDS011;17300;50.374;8.006;2023-04-19T05:14:12;5.73;;;5.23;;
30519;SDS011;17300;50.374;8.006;2023-04-19T05:16:39;4.97;;;4.57;;
30519;SDS011;17300;50.374;8.006;2023-04-19T05:19:05;5.53;;;5.03;;
30519;SDS011;17300;50.374;8.006;2023-04-19T05:21:32;5.50;;;5.03;;
30519;SDS011;17300;50.374;8.006;2023-04-19T05:24:00;5.83;;;5.33;;
30519;SDS011;17300;50.374;8.006;2023-04-19T05:26:28;5.87;;;5.33;;
30519;SDS011;17300;50.374;8.006;2023-04-19T05:28:54;5.37;;;4.87;;
30519;SDS011;17300;50.374;8.006;2023-04-19T05:31:21;5.97;;;5.03;;
30519;SDS011;17300;50.374;8.006;2023-04-19T05:33:48;5.67;;;4.87;;
30519;SDS011;17300;50.374;8.006;2023-04-19T05:36:14;5.20;;;4.73;;
30519;SDS011;17300;50.374;8.006;2023-04-19T05:38:41;6.03;;;5.17;;
30519;SDS011;17300;50.374;8.006;2023-04-19T05:41:09;5.43;;;4.93;;
30519;SDS011;17300;50.374;8.006;2023-04-19T05:43:36;7.40;;;5.10;;
30519;SDS011;17300;50.374;8.006;2023-04-19T05:46:03;5.67;;;5.17;;
30519;SDS011;17300;50.374;8.006;2023-04-19T05:48:29;6.23;;;5.33;;
30519;SDS011;17300;50.374;8.006;2023-04-19T05:50:56;5.70;;;5.20;;
30519;SDS011;17300;50.374;8.006;2023-04-19T05:53:23;5.57;;;5.07;;
30519;SDS011;17300;50.374;8.006;2023-04-19T05:55:50;6.03;;;5.23;;
30519;SDS011;17300;50.374;8.006;2023-04-19T05:58:18;6.30;;;5.70;;
30519;SDS011;17300;50.374;8.006;2023-04-19T06:00:45;6.90;;;6.20;;
30519;SDS011;17300;50.374;8.006;2023-04-19T06:03:12;7.60;;;6.90;;
30519;SDS011;17300;50.374;8.006;2023-04-19T06:05:39;6.87;;;6.20;;
30519;SDS011;17300;50.374;8.006;2023-04-19T06:08:06;6.53;;;5.93;;
30519;SDS011;17300;50.374;8.006;2023-04-19T06:10:33;6.40;;;5.80;;
30519;SDS011;17300;50.374;8.006;2023-04-19T06:13:00;5.67;;;5.17;;
30519;SDS011;17300;50.374;8.006;2023-04-19T06:15:28;6.03;;;5.43;;
30519;SDS011;17300;50.374;8.006;2023-04-19T06:17:55;5.07;;;4.60;;
30519;SDS011;17300;50.374;8.006;2023-04-19T06:20:22;6.03;;;4.87;;
30519;SDS011;17300;50.374;8.006;2023-04-19T06:22:48;5.30;;;4.73;;
30519;SDS011;17300;50.374;8.006;2023-04-19T06:25:15;4.90;;;4.50;;
30519;SDS011;17300;50.374;8.006;2023-04-19T06:27:42;4.87;;;4.43;;
30519;SDS011;17300;50.374;8.006;2023-04-19T06:30:09;5.23;;;4.73;;
30519;SDS011;17300;50.374;8.006;2023-04-19T06:32:37;5.20;;;4.70;;
30519;SDS011;17300;50.374;8.006;2023-04-19T06:35:04;4.43;;;4.03;;
30519;SDS011;17300;50.374;8.006;2023-04-19T06:37:32;5.60;;;4.33;;
30519;SDS011;17300;50.374;8.006;2023-04-19T06:39:58;4.03;;;3.63;;
30519;SDS011;17300;50.374;8.006;2023-04-19T06:42:25;4.40;;;3.57;;
30519;SDS011;17300;50.374;8.006;2023-04-19T06:44:53;4.93;;;4.13;;
30519;SDS011;17300;50.374;8.006;2023-04-19T06:47:21;4.27;;;3.80;;
30519;SDS011;17300;50.374;8.006;2023-04-19T06:49:49;3.80;;;3.50;;
30519;SDS011;17300;50.374;8.006;2023-04-19T06:52:16;3.70;;;3.40;;
30519;SDS011;17300;50.374;8.006;2023-04-19T06:54:45;3.83;;;3.43;;
30519;SDS011;17300;50.374;8.006;2023-04-19T06:57:13;4.10;;;3.70;;
30519;SDS011;17300;50.374;8.006;2023-04-19T06:59:39;4.30;;;3.50;;
30519;SDS011;17300;50.374;8.006;2023-04-19T07:02:06;3.63;;;3.33;;
30519;SDS011;17300;50.374;8.006;2023-04-19T07:04:33;3.60;;;3.30;;
30519;SDS011;17300;50.374;8.006;2023-04-19T07:07:01;3.20;;;2.90;;
30519;SDS011;17300;50.374;8.006;2023-04-19T07:09:28;3.03;;;2.83;;
30519;SDS011;17300;50.374;8.006;2023-04-19T07:11:55;2.90;;;2.70;;
30519;SDS011;17300;50.374;8.006;2023-04-19T07:14:21;3.10;;;2.80;;
30519;SDS011;17300;50.374;8.006;2023-04-19T07:16:48;2.83;;;2.63;;
30519;SDS011;17300;50.374;8.006;2023-04-19T07:19:17;2.87;;;2.67;;
30519;SDS011;17300;50.374;8.006;2023-04-19T07:21:44;2.77;;;2.57;;
30519;SDS011;17300;50.374;8.006;2023-04-19T07:24:12;2.63;;;2.43;;
30519;SDS011;17300;50.374;8.006;2023-04-19T07:26:40;2.93;;;2.73;;
30519;SDS011;17300;50.374;8.006;2023-04-19T07:29:07;2.60;;;2.40;;
30519;SDS011;17300;50.374;8.006;2023-04-19T07:31:33;2.60;;;2.40;;
30519;SDS011;17300;50.374;8.006;2023-04-19T07:34:00;2.70;;;2.50;;
30519;SDS011;17300;50.374;8.006;2023-04-19T07:36:27;2.20;;;2.10;;
30519;SDS011;17300;50.374;8.006;2023-04-19T07:38:58;2.63;;;2.40;;
30519;SDS011;17300;50.374;8.006;2023-04-19T07:41:26;2.80;;;2.33;;
30519;SDS011;17300;50.374;8.006;2023-04-19T07:43:53;2.20;;;2.10;;
30519;SDS011;17300;50.374;8.006;2023-04-19T07:46:19;2.93;;;2.60;;
30519;SDS011;17300;50.374;8.006;2023-04-19T07:48:46;2.90;;;2.50;;
30519;SDS011;17300;50.374;8.006;2023-04-19T07:51:13;2.73;;;2.47;;
30519;SDS011;17300;50.374;8.006;2023-04-19T07:53:41;3.03;;;2.43;;
30519;SDS011;17300;50.374;8.006;2023-04-19T07:56:09;2.30;;;2.13;;
30519;SDS011;17300;50.374;8.006;2023-04-19T07:58:38;2.37;;;2.23;;
30519;SDS011;17300;50.374;8.006;2023-04-19T08:01:05;2.30;;;2.10;;
30519;SDS011;17300;50.374;8.006;2023-04-19T08:03:32;2.20;;;2.00;;
30519;SDS011;17300;50.374;8.006;2023-04-19T08:05:59;2.45;;;2.25;;
30519;SDS011;17300;50.374;8.006;2023-04-19T08:08:26;2.03;;;1.88;;
30519;SDS011;17300;50.374;8.006;2023-04-19T08:10:53;2.22;;;2.13;;
30519;SDS011;17300;50.374;8.006;2023-04-19T08:13:19;1.95;;;1.77;;
30519;SDS011;17300;50.374;8.006;2023-04-19T08:15:47;2.00;;;1.90;;
30519;SDS011;17300;50.374;8.006;2023-04-19T08:18:14;2.35;;;2.15;;
30519;SDS011;17300;50.374;8.006;2023-04-19T08:20:41;2.35;;;2.15;;
30519;SDS011;17300;50.374;8.006;2023-04-19T08:23:08;2.05;;;1.90;;
30519;SDS011;17300;50.374;8.006;2023-04-19T08:25:35;2.50;;;2.20;;
30519;SDS011;17300;50.374;8.006;2023-04-19T08:28:02;2.03;;;1.92;;
30519;SDS011;17300;50.374;8.006;2023-04-19T08:30:29;2.10;;;2.00;;
30519;SDS011;17300;50.374;8.006;2023-04-19T08:32:57;2.30;;;2.10;;
30519;SDS011;17300;50.374;8.006;2023-04-19T08:35:23;1.75;;;1.65;;
30519;SDS011;17300;50.374;8.006;2023-04-19T08:37:50;2.13;;;1.80;;
30519;SDS011;17300;50.374;8.006;2023-04-19T08:40:17;2.17;;;2.08;;
30519;SDS011;17300;50.374;8.006;2023-04-19T08:42:44;2.17;;;2.08;;
30519;SDS011;17300;50.374;8.006;2023-04-19T08:45:11;2.03;;;1.92;;
30519;SDS011;17300;50.374;8.006;2023-04-19T08:47:40;2.13;;;2.03;;
30519;SDS011;17300;50.374;8.006;2023-04-19T08:50:09;2.05;;;1.95;;
30519;SDS011;17300;50.374;8.006;2023-04-19T08:52:36;2.05;;;1.95;;
30519;SDS011;17300;50.374;8.006;2023-04-19T08:55:04;2.08;;;1.92;;
30519;SDS011;17300;50.374;8.006;2023-04-19T08:57:33;2.30;;;2.10;;
30519;SDS011;17300;50.374;8.006;2023-04-19T09:00:01;2.20;;;2.10;;
30519;SDS011;17300;50.374;8.006;2023-04-19T09:02:42;2.03;;;1.92;;
30519;SDS011;17300;50.374;8.006;2023-04-19T09:05:12;1.90;;;1.80;;
30519;SDS011;17300;50.374;8.006;2023-04-19T09:07:39;2.13;;;1.90;;
30519;SDS011;17300;50.374;8.006;2023-04-19T09:10:07;1.90;;;1.80;;
30519;SDS011;17300;50.374;8.006;2023-04-19T09:12:35;2.05;;;1.90;;
30519;SDS011;17300;50.374;8.006;2023-04-19T09:15:03;2.55;;;2.03;;
30519;SDS011;17300;50.374;8.006;2023-04-19T09:17:33;3.17;;;1.88;;
30519;SDS011;17300;50.374;8.006;2023-04-19T09:20:00;1.85;;;1.75;;
30519;SDS011;17300;50.374;8.006;2023-04-19T09:22:30;1.85;;;1.75;;
30519;SDS011;17300;50.374;8.006;2023-04-19T09:24:57;1.92;;;1.83;;
30519;SDS011;17300;50.374;8.006;2023-04-19T09:27:26;2.17;;;1.98;;
30519;SDS011;17300;50.374;8.006;2023-04-19T09:29:54;1.83;;;1.73;;
30519;SDS011;17300;50.374;8.006;2023-04-19T09:32:21;2.15;;;2.05;;
30519;SDS011;17300;50.374;8.006;2023-04-19T09:34:52;1.98;;;1.83;;
30519;SDS011;17300;50.374;8.006;2023-04-19T09:37:19;1.95;;;1.85;;
30519;SDS011;17300;50.374;8.006;2023-04-19T09:39:48;2.10;;;2.00;;
30519;SDS011;17300;50.374;8.006;2023-04-19T09:42:15;2.30;;;2.10;;
30519;SDS011;17300;50.374;8.006;2023-04-19T09:44:54;2.60;;;2.00;;
30519;SDS011;17300;50.374;8.006;2023-04-19T09:47:22;1.90;;;1.77;;
30519;SDS011;17300;50.374;8.006;2023-04-19T09:50:02;1.98;;;1.88;;
30519;SDS011;17300;50.374;8.006;2023-04-19T09:52:31;2.45;;;2.22;;
30519;SDS011;17300;50.374;8.006;2023-04-19T09:55:00;2.17;;;1.73;;
30519;SDS011;17300;50.374;8.006;2023-04-19T09:57:29;2.22;;;1.98;;
30519;SDS011;17300;50.374;8.006;2023-04-19T09:59:57;2.03;;;1.92;;
30519;SDS011;17300;50.374;8.006;2023-04-19T10:02:24;2.08;;;1.88;;
30519;SDS011;17300;50.374;8.006;2023-04-19T10:04:55;2.33;;;2.13;;
30519;SDS011;17300;50.374;8.006;2023-04-19T10:07:23;2.35;;;2.15;;
30519;SDS011;17300;50.374;8.006;2023-04-19T10:09:50;2.10;;;2.00;;
30519;SDS011;17300;50.374;8.006;2023-04-19T10:12:23;1.90;;;1.80;;
30519;SDS011;17300;50.374;8.006;2023-04-19T10:14:51;2.00;;;1.85;;
30519;SDS011;17300;50.374;8.006;2023-04-19T10:17:22;2.00;;;1.90;;
30519;SDS011;17300;50.374;8.006;2023-04-19T10:19:51;1.92;;;1.77;;
30519;SDS011;17300;50.374;8.006;2023-04-19T10:22:24;1.83;;;1.73;;
30519;SDS011;17300;50.374;8.006;2023-04-19T10:25:06;2.15;;;2.00;;
30519;SDS011;17300;50.374;8.006;2023-04-19T10:27:36;2.00;;;1.90;;
30519;SDS011;17300;50.374;8.006;2023-04-19T10:30:03;2.00;;;1.90;;
30519;SDS011;17300;50.374;8.006;2023-04-19T10:32:36;1.80;;;1.70;;
30519;SDS011;17300;50.374;8.006;2023-04-19T10:35:06;2.05;;;1.95;;
30519;SDS011;17300;50.374;8.006;2023-04-19T10:37:34;2.40;;;2.20;;
30519;SDS011;17300;50.374;8.006;2023-04-19T10:40:05;1.73;;;1.63;;
30519;SDS011;17300;50.374;8.006;2023-04-19T10:45:41;1.90;;;1.80;;
30519;SDS011;17300;50.374;8.006;2023-04-19T10:48:22;2.10;;;1.90;;
30519;SDS011;17300;50.374;8.006;2023-04-19T10:51:02;1.63;;;1.52;;
30519;SDS011;17300;50.374;8.006;2023-04-19T10:53:51;1.77;;;1.67;;
30519;SDS011;17300;50.374;8.006;2023-04-19T10:59:25;1.55;;;1.45;;
30519;SDS011;17300;50.374;8.006;2023-04-19T11:01:55;1.90;;;1.80;;
30519;SDS011;17300;50.374;8.006;2023-04-19T11:04:23;2.50;;;1.52;;
30519;SDS011;17300;50.374;8.006;2023-04-19T11:07:05;2.17;;;1.77;;
30519;SDS011;17300;50.374;8.006;2023-04-19T11:09:33;1.70;;;1.60;;
30519;SDS011;17300;50.374;8.006;2023-04-19T11:12:03;2.00;;;1.80;;
30519;SDS011;17300;50.374;8.006;2023-04-19T11:14:34;1.70;;;1.60;;
30519;SDS011;17300;50.374;8.006;2023-04-19T11:17:03;1.92;;;1.83;;
30519;SDS011;17300;50.374;8.006;2023-04-19T11:19:41;1.92;;;1.70;;
30519;SDS011;17300;50.374;8.006;2023-04-19T11:22:08;2.08;;;1.90;;
30519;SDS011;17300;50.374;8.006;2023-04-19T11:24:35;2.15;;;1.83;;
30519;SDS011;17300;50.374;8.006;2023-04-19T11:27:06;2.05;;;1.60;;
30519;SDS011;17300;50.374;8.006;2023-04-19T11:29:34;2.33;;;1.80;;
30519;SDS011;17300;50.374;8.006;2023-04-19T11:32:01;1.65;;;1.55;;
30519;SDS011;17300;50.374;8.006;2023-04-19T11:34:29;1.83;;;1.65;;
30519;SDS011;17300;50.374;8.006;2023-04-19T11:37:00;2.25;;;1.90;;
30519;SDS011;17300;50.374;8.006;2023-04-19T11:39:27;1.80;;;1.70;;
30519;SDS011;17300;50.374;8.006;2023-04-19T11:41:54;1.70;;;1.60;;
30519;SDS011;17300;50.374;8.006;2023-04-19T11:44:22;1.70;;;1.60;;
30519;SDS011;17300;50.374;8.006;2023-04-19T11:46:57;2.10;;;1.73;;
30519;SDS011;17300;50.374;8.006;2023-04-19T11:49:25;2.05;;;1.85;;
30519;SDS011;17300;50.374;8.006;2023-04-19T11:51:54;2.08;;;1.42;;
30519;SDS011;17300;50.374;8.006;2023-04-19T11:54:22;1.77;;;1.67;;
30519;SDS011;17300;50.374;8.006;2023-04-19T11:56:56;1.70;;;1.58;;
30519;SDS011;17300;50.374;8.006;2023-04-19T11:59:24;1.40;;;1.30;;
30519;SDS011;17300;50.374;8.006;2023-04-19T12:01:51;1.50;;;1.40;;
30519;SDS011;17300;50.374;8.006;2023-04-19T12:04:19;1.38;;;1.27;;
30519;SDS011;17300;50.374;8.006;2023-04-19T12:06:54;1.40;;;1.20;;
30519;SDS011;17300;50.374;8.006;2023-04-19T12:09:22;1.58;;;1.30;;
30519;SDS011;17300;50.374;8.006;2023-04-19T12:11:49;1.67;;;1.42;;
30519;SDS011;17300;50.374;8.006;2023-04-19T12:14:17;1.85;;;1.65;;
30519;SDS011;17300;50.374;8.006;2023-04-19T12:16:53;1.40;;;1.30;;
30519;SDS011;17300;50.374;8.006;2023-04-19T12:19:35;1.67;;;1.38;;
30519;SDS011;17300;50.374;8.006;2023-04-19T12:22:09;1.60;;;1.50;;
30519;SDS011;17300;50.374;8.006;2023-04-19T12:24:36;1.25;;;1.00;;
30519;SDS011;17300;50.374;8.006;2023-04-19T12:27:04;1.98;;;1.10;;
30519;SDS011;17300;50.374;8.006;2023-04-19T12:29:31;1.20;;;1.10;;
30519;SDS011;17300;50.374;8.006;2023-04-19T12:31:58;0.95;;;0.93;;
30519;SDS011;17300;50.374;8.006;2023-04-19T12:34:25;1.35;;;1.25;;
30519;SDS011;17300;50.374;8.006;2023-04-19T12:36:53;3.17;;;1.40;;
30519;SDS011;17300;50.374;8.006;2023-04-19T12:39:20;6.18;;;1.75;;
30519;SDS011;17300;50.374;8.006;2023-04-19T12:41:47;4.65;;;1.65;;
30519;SDS011;17300;50.374;8.006;2023-04-19T12:44:15;4.70;;;1.67;;
30519;SDS011;17300;50.374;8.006;2023-04-19T12:46:41;2.28;;;1.40;;
30519;SDS011;17300;50.374;8.006;2023-04-19T12:49:08;1.00;;;1.00;;
30519;SDS011;17300;50.374;8.006;2023-04-19T12:51:35;1.30;;;1.20;;
30519;SDS011;17300;50.374;8.006;2023-04-19T12:54:03;1.85;;;1.30;;
30519;SDS011;17300;50.374;8.006;2023-04-19T12:56:34;0.85;;;0.85;;
30519;SDS011;17300;50.374;8.006;2023-04-19T12:59:00;1.02;;;0.98;;
30519;SDS011;17300;50.374;8.006;2023-04-19T13:01:27;0.90;;;0.90;;
30519;SDS011;17300;50.374;8.006;2023-04-19T13:03:54;1.25;;;1.00;;
30519;SDS011;17300;50.374;8.006;2023-04-19T13:06:20;1.20;;;1.10;;
30519;SDS011;17300;50.374;8.006;2023-04-19T13:08:47;1.20;;;1.10;;
30519;SDS011;17300;50.374;8.006;2023-04-19T13:11:15;1.73;;;1.00;;
30519;SDS011;17300;50.374;8.006;2023-04-19T13:13:46;1.07;;;0.97;;
30519;SDS011;17300;50.374;8.006;2023-04-19T13:16:14;1.43;;;1.20;;
30519;SDS011;17300;50.374;8.006;2023-04-19T13:18:41;1.10;;;1.00;;
30519;SDS011;17300;50.374;8.006;2023-04-19T13:21:07;1.37;;;1.10;;
30519;SDS011;17300;50.374;8.006;2023-04-19T13:23:34;1.60;;;1.10;;
30519;SDS011;17300;50.374;8.006;2023-04-19T13:26:01;1.87;;;1.17;;
30519;SDS011;17300;50.374;8.006;2023-04-19T13:28:29;1.30;;;1.20;;
30519;SDS011;17300;50.374;8.006;2023-04-19T13:30:56;1.10;;;1.00;;
30519;SDS011;17300;50.374;8.006;2023-04-19T13:33:22;1.47;;;1.20;;
30519;SDS011;17300;50.374;8.006;2023-04-19T13:35:50;1.10;;;0.87;;
30519;SDS011;17300;50.374;8.006;2023-04-19T13:38:17;1.20;;;1.00;;
30519;SDS011;17300;50.374;8.006;2023-04-19T13:40:44;1.00;;;0.80;;
30519;SDS011;17300;50.374;8.006;2023-04-19T13:43:10;0.80;;;0.80;;
30519;SDS011;17300;50.374;8.006;2023-04-19T13:45:38;1.00;;;0.90;;
30519;SDS011;17300;50.374;8.006;2023-04-19T13:48:05;1.40;;;1.00;;
30519;SDS011;17300;50.374;8.006;2023-04-19T13:50:32;1.00;;;0.90;;
30519;SDS011;17300;50.374;8.006;2023-04-19T13:52:58;2.70;;;1.10;;
30519;SDS011;17300;50.374;8.006;2023-04-19T13:55:25;0.90;;;0.90;;
30519;SDS011;17300;50.374;8.006;2023-04-19T13:57:52;1.90;;;1.17;;
30519;SDS011;17300;50.374;8.006;2023-04-19T14:00:19;0.90;;;0.90;;
30519;SDS011;17300;50.374;8.006;2023-04-19T14:02:47;1.17;;;0.83;;
30519;SDS011;17300;50.374;8.006;2023-04-19T14:05:14;0.97;;;0.87;;
30519;SDS011;17300;50.374;8.006;2023-04-19T14:07:41;0.73;;;0.67;;
30519;SDS011;17300;50.374;8.006;2023-04-19T14:10:08;0.70;;;0.70;;
30519;SDS011;17300;50.374;8.006;2023-04-19T14:12:35;0.90;;;0.90;;
30519;SDS011;17300;50.374;8.006;2023-04-19T14:15:02;1.23;;;1.00;;
30519;SDS011;17300;50.374;8.006;2023-04-19T14:17:29;0.93;;;0.93;;
30519;SDS011;17300;50.374;8.006;2023-04-19T14:19:57;1.03;;;0.97;;
30519;SDS011;17300;50.374;8.006;2023-04-19T14:22:24;0.97;;;0.87;;
30519;SDS011;17300;50.374;8.006;2023-04-19T14:24:50;1.00;;;0.87;;
30519;SDS011;17300;50.374;8.006;2023-04-19T14:27:17;2.10;;;0.93;;
30519;SDS011;17300;50.374;8.006;2023-04-19T14:29:44;1.13;;;1.00;;
30519;SDS011;17300;50.374;8.006;2023-04-19T14:32:10;1.33;;;0.90;;
30519;SDS011;17300;50.374;8.006;2023-04-19T14:34:37;0.80;;;0.80;;
30519;SDS011;17300;50.374;8.006;2023-04-19T14:37:05;1.13;;;1.03;;
30519;SDS011;17300;50.374;8.006;2023-04-19T14:39:32;0.90;;;0.90;;
30519;SDS011;17300;50.374;8.006;2023-04-19T14:42:00;1.83;;;0.97;;
30519;SDS011;17300;50.374;8.006;2023-04-19T14:44:27;1.63;;;1.10;;
30519;SDS011;17300;50.374;8.006;2023-04-19T14:46:53;1.17;;;1.10;;
30519;SDS011;17300;50.374;8.006;2023-04-19T14:49:21;1.10;;;1.00;;
30519;SDS011;17300;50.374;8.006;2023-04-19T14:51:47;0.87;;;0.87;;
30519;SDS011;17300;50.374;8.006;2023-04-19T14:54:15;1.00;;;1.00;;
30519;SDS011;17300;50.374;8.006;2023-04-19T14:56:42;1.10;;;0.90;;